sensor_id;sensor_type;location;lat;lon;timestamp;P1;durP1;ratioP1;P2;durP2;ratioP2
4377;SDS011;2203;53.686;9.994;2023-04-15T00:00:26;5.73;;;3.80;;
4377;SDS011;2203;53.686;9.994;2023-04-15T00:02:53;5.87;;;3.90;;
4377;SDS011;2203;53.686;9.994;2023-04-15T00:05:19;5.77;;;4.17;;
4377;SDS011;2203;53.686;9.994;2023-04-15T00:07:44;7.93;;;4.40;;
4377;SDS011;2203;53.686;9.994;2023-04-15T00:10:11;6.83;;;3.90;;
4377;SDS011;2203;53.686;9.994;2023-04-15T00:12:36;5.73;;;3.27;;
4377;SDS011;2203;53.686;9.994;2023-04-15T00:15:02;7.03;;;3.87;;
4377;SDS011;2203;53.686;9.994;2023-04-15T00:17:28;6.13;;;3.97;;
4377;SDS011;2203;53.686;9.994;2023-04-15T00:19:53;5.47;;;4.03;;
4377;SDS011;2203;53.686;9.994;2023-04-15T00:22:19;6.17;;;4.30;;
4377;SDS011;2203;53.686;9.994;2023-04-15T00:24:44;7.00;;;4.17;;
4377;SDS011;2203;53.686;9.994;2023-04-15T00:27:10;7.07;;;4.17;;
4377;SDS011;2203;53.686;9.994;2023-04-15T00:29:35;6.50;;;3.50;;
4377;SDS011;2203;53.686;9.994;2023-04-15T00:32:01;5.87;;;4.30;;
4377;SDS011;2203;53.686;9.994;2023-04-15T00:34:26;5.23;;;3.97;;
4377;SDS011;2203;53.686;9.994;2023-04-15T00:36:52;5.50;;;3.83;;
4377;SDS011;2203;53.686;9.994;2023-04-15T00:39:18;4.33;;;3.60;;
4377;SDS011;2203;53.686;9.994;2023-04-15T00:41:44;4.60;;;3.93;;
4377;SDS011;2203;53.686;9.994;2023-04-15T00:44:10;7.00;;;4.67;;
4377;SDS011;2203;53.686;9.994;2023-04-15T00:46:36;5.97;;;4.50;;
4377;SDS011;2203;53.686;9.994;2023-04-15T00:49:05;6.93;;;4.40;;
4377;SDS011;2203;53.686;9.994;2023-04-15T00:51:32;8.13;;;5.00;;
4377;SDS011;2203;53.686;9.994;2023-04-15T00:54:00;8.53;;;4.80;;
4377;SDS011;2203;53.686;9.994;2023-04-15T00:56:26;6.60;;;4.70;;
4377;SDS011;2203;53.686;9.994;2023-04-15T00:58:53;6.20;;;4.50;;
4377;SDS011;2203;53.686;9.994;2023-04-15T01:01:21;6.03;;;4.33;;
4377;SDS011;2203;53.686;9.994;2023-04-15T01:03:49;7.80;;;4.80;;
4377;SDS011;2203;53.686;9.994;2023-04-15T01:06:15;7.30;;;4.40;;
4377;SDS011;2203;53.686;9.994;2023-04-15T01:08:41;7.30;;;4.90;;
4377;SDS011;2203;53.686;9.994;2023-04-15T01:11:07;6.20;;;4.83;;
4377;SDS011;2203;53.686;9.994;2023-04-15T01:13:33;6.43;;;5.00;;
4377;SDS011;2203;53.686;9.994;2023-04-15T01:15:59;6.33;;;4.80;;
4377;SDS011;2203;53.686;9.994;2023-04-15T01:18:24;5.73;;;4.20;;
4377;SDS011;2203;53.686;9.994;2023-04-15T01:20:50;6.37;;;4.80;;
4377;SDS011;2203;53.686;9.994;2023-04-15T01:23:15;6.10;;;4.50;;
4377;SDS011;2203;53.686;9.994;2023-04-15T01:25:41;9.93;;;4.83;;
4377;SDS011;2203;53.686;9.994;2023-04-15T01:28:08;4.73;;;4.03;;
4377;SDS011;2203;53.686;9.994;2023-04-15T01:30:34;7.03;;;4.20;;
4377;SDS011;2203;53.686;9.994;2023-04-15T01:32:59;7.90;;;4.87;;
4377;SDS011;2203;53.686;9.994;2023-04-15T01:35:25;6.53;;;4.50;;
4377;SDS011;2203;53.686;9.994;2023-04-15T01:37:51;5.10;;;3.93;;
4377;SDS011;2203;53.686;9.994;2023-04-15T01:40:18;6.37;;;4.33;;
4377;SDS011;2203;53.686;9.994;2023-04-15T01:42:43;7.57;;;4.50;;
4377;SDS011;2203;53.686;9.994;2023-04-15T01:45:09;7.40;;;4.77;;
4377;SDS011;2203;53.686;9.994;2023-04-15T01:47:35;6.47;;;4.67;;
4377;SDS011;2203;53.686;9.994;2023-04-15T01:50:00;4.80;;;4.20;;
4377;SDS011;2203;53.686;9.994;2023-04-15T01:52:26;7.83;;;5.67;;
4377;SDS011;2203;53.686;9.994;2023-04-15T01:54:51;6.90;;;4.80;;
4377;SDS011;2203;53.686;9.994;2023-04-15T01:57:16;6.17;;;4.47;;
4377;SDS011;2203;53.686;9.994;2023-04-15T01:59:42;8.10;;;5.00;;
4377;SDS011;2203;53.686;9.994;2023-04-15T02:02:07;7.20;;;5.03;;
4377;SDS011;2203;53.686;9.994;2023-04-15T02:04:33;6.20;;;4.40;;
4377;SDS011;2203;53.686;9.994;2023-04-15T02:06:58;7.23;;;5.27;;
4377;SDS011;2203;53.686;9.994;2023-04-15T02:09:24;8.43;;;5.13;;
4377;SDS011;2203;53.686;9.994;2023-04-15T02:11:50;7.07;;;5.13;;
4377;SDS011;2203;53.686;9.994;2023-04-15T02:14:17;5.63;;;4.63;;
4377;SDS011;2203;53.686;9.994;2023-04-15T02:16:43;7.17;;;4.87;;
4377;SDS011;2203;53.686;9.994;2023-04-15T02:19:08;8.03;;;5.10;;
4377;SDS011;2203;53.686;9.994;2023-04-15T02:21:33;8.20;;;5.20;;
4377;SDS011;2203;53.686;9.994;2023-04-15T02:23:59;7.97;;;6.17;;
4377;SDS011;2203;53.686;9.994;2023-04-15T02:26:26;9.03;;;6.10;;
4377;SDS011;2203;53.686;9.994;2023-04-15T02:28:52;8.90;;;5.70;;
4377;SDS011;2203;53.686;9.994;2023-04-15T02:31:17;8.00;;;5.83;;
4377;SDS011;2203;53.686;9.994;2023-04-15T02:33:43;8.30;;;5.90;;
4377;SDS011;2203;53.686;9.994;2023-04-15T02:36:08;10.53;;;6.67;;
4377;SDS011;2203;53.686;9.994;2023-04-15T02:38:35;12.60;;;6.90;;
4377;SDS011;2203;53.686;9.994;2023-04-15T02:41:02;10.63;;;6.67;;
4377;SDS011;2203;53.686;9.994;2023-04-15T02:43:27;10.63;;;6.73;;
4377;SDS011;2203;53.686;9.994;2023-04-15T02:45:52;9.97;;;6.47;;
4377;SDS011;2203;53.686;9.994;2023-04-15T02:48:18;11.00;;;6.53;;
4377;SDS011;2203;53.686;9.994;2023-04-15T02:50:45;11.70;;;6.97;;
4377;SDS011;2203;53.686;9.994;2023-04-15T02:53:10;11.60;;;6.93;;
4377;SDS011;2203;53.686;9.994;2023-04-15T02:55:37;14.23;;;8.00;;
4377;SDS011;2203;53.686;9.994;2023-04-15T02:58:02;10.43;;;6.97;;
4377;SDS011;2203;53.686;9.994;2023-04-15T03:00:28;11.60;;;7.60;;
4377;SDS011;2203;53.686;9.994;2023-04-15T03:02:57;12.43;;;8.00;;
4377;SDS011;2203;53.686;9.994;2023-04-15T03:05:25;12.90;;;7.90;;
4377;SDS011;2203;53.686;9.994;2023-04-15T03:07:51;13.07;;;7.73;;
4377;SDS011;2203;53.686;9.994;2023-04-15T03:10:16;11.30;;;7.60;;
4377;SDS011;2203;53.686;9.994;2023-04-15T03:12:42;13.20;;;8.10;;
4377;SDS011;2203;53.686;9.994;2023-04-15T03:15:08;13.90;;;8.60;;
4377;SDS011;2203;53.686;9.994;2023-04-15T03:17:33;14.57;;;7.70;;
4377;SDS011;2203;53.686;9.994;2023-04-15T03:20:02;13.63;;;8.30;;
4377;SDS011;2203;53.686;9.994;2023-04-15T03:22:29;14.87;;;8.70;;
4377;SDS011;2203;53.686;9.994;2023-04-15T03:24:55;18.43;;;9.73;;
4377;SDS011;2203;53.686;9.994;2023-04-15T03:27:21;15.77;;;9.20;;
4377;SDS011;2203;53.686;9.994;2023-04-15T03:29:46;19.13;;;9.67;;
4377;SDS011;2203;53.686;9.994;2023-04-15T03:32:12;18.13;;;10.20;;
4377;SDS011;2203;53.686;9.994;2023-04-15T03:34:39;17.30;;;9.60;;
4377;SDS011;2203;53.686;9.994;2023-04-15T03:37:05;17.67;;;10.50;;
4377;SDS011;2203;53.686;9.994;2023-04-15T03:39:30;17.17;;;10.23;;
4377;SDS011;2203;53.686;9.994;2023-04-15T03:41:56;18.90;;;10.87;;
4377;SDS011;2203;53.686;9.994;2023-04-15T03:44:21;20.63;;;11.70;;
4377;SDS011;2203;53.686;9.994;2023-04-15T03:46:47;19.60;;;11.53;;
4377;SDS011;2203;53.686;9.994;2023-04-15T03:49:12;20.97;;;11.90;;
4377;SDS011;2203;53.686;9.994;2023-04-15T03:51:38;21.53;;;12.20;;
4377;SDS011;2203;53.686;9.994;2023-04-15T03:54:03;20.10;;;11.43;;
4377;SDS011;2203;53.686;9.994;2023-04-15T03:56:29;25.53;;;13.90;;
4377;SDS011;2203;53.686;9.994;2023-04-15T03:58:54;22.40;;;12.63;;
4377;SDS011;2203;53.686;9.994;2023-04-15T04:01:20;24.63;;;14.23;;
4377;SDS011;2203;53.686;9.994;2023-04-15T04:03:46;26.40;;;15.23;;
4377;SDS011;2203;53.686;9.994;2023-04-15T04:06:12;23.90;;;13.93;;
4377;SDS011;2203;53.686;9.994;2023-04-15T04:08:37;27.13;;;14.57;;
4377;SDS011;2203;53.686;9.994;2023-04-15T04:11:03;27.00;;;14.60;;
4377;SDS011;2203;53.686;9.994;2023-04-15T04:13:28;24.77;;;14.77;;
4377;SDS011;2203;53.686;9.994;2023-04-15T04:15:54;25.67;;;14.63;;
4377;SDS011;2203;53.686;9.994;2023-04-15T04:18:19;27.93;;;15.33;;
4377;SDS011;2203;53.686;9.994;2023-04-15T04:20:45;26.97;;;14.23;;
4377;SDS011;2203;53.686;9.994;2023-04-15T04:23:10;28.90;;;16.30;;
4377;SDS011;2203;53.686;9.994;2023-04-15T04:25:36;28.90;;;15.87;;
4377;SDS011;2203;53.686;9.994;2023-04-15T04:28:01;29.53;;;16.07;;
4377;SDS011;2203;53.686;9.994;2023-04-15T04:30:27;36.93;;;17.10;;
4377;SDS011;2203;53.686;9.994;2023-04-15T04:32:52;30.20;;;16.57;;
4377;SDS011;2203;53.686;9.994;2023-04-15T04:35:18;33.70;;;18.67;;
4377;SDS011;2203;53.686;9.994;2023-04-15T04:37:43;33.67;;;17.50;;
4377;SDS011;2203;53.686;9.994;2023-04-15T04:40:09;33.13;;;16.90;;
4377;SDS011;2203;53.686;9.994;2023-04-15T04:42:34;34.43;;;17.90;;
4377;SDS011;2203;53.686;9.994;2023-04-15T04:45:00;34.47;;;18.80;;
4377;SDS011;2203;53.686;9.994;2023-04-15T04:47:25;32.23;;;17.40;;
4377;SDS011;2203;53.686;9.994;2023-04-15T04:49:51;32.87;;;18.20;;
4377;SDS011;2203;53.686;9.994;2023-04-15T04:52:16;35.60;;;19.30;;
4377;SDS011;2203;53.686;9.994;2023-04-15T04:54:42;38.87;;;20.03;;
4377;SDS011;2203;53.686;9.994;2023-04-15T04:57:07;35.77;;;19.77;;
4377;SDS011;2203;53.686;9.994;2023-04-15T04:59:32;41.27;;;21.40;;
4377;SDS011;2203;53.686;9.994;2023-04-15T05:01:58;40.27;;;19.63;;
4377;SDS011;2203;53.686;9.994;2023-04-15T05:04:24;37.37;;;19.87;;
4377;SDS011;2203;53.686;9.994;2023-04-15T05:06:50;38.80;;;19.47;;
4377;SDS011;2203;53.686;9.994;2023-04-15T05:09:15;37.60;;;19.73;;
4377;SDS011;2203;53.686;9.994;2023-04-15T05:11:41;39.37;;;19.30;;
4377;SDS011;2203;53.686;9.994;2023-04-15T05:14:06;37.20;;;20.37;;
4377;SDS011;2203;53.686;9.994;2023-04-15T05:16:32;34.40;;;19.17;;
4377;SDS011;2203;53.686;9.994;2023-04-15T05:18:57;36.27;;;19.27;;
4377;SDS011;2203;53.686;9.994;2023-04-15T05:21:22;36.93;;;20.63;;
4377;SDS011;2203;53.686;9.994;2023-04-15T05:23:48;35.07;;;19.30;;
4377;SDS011;2203;53.686;9.994;2023-04-15T05:26:13;40.23;;;20.87;;
4377;SDS011;2203;53.686;9.994;2023-04-15T05:28:38;34.63;;;18.97;;
4377;SDS011;2203;53.686;9.994;2023-04-15T05:31:04;37.50;;;19.87;;
4377;SDS011;2203;53.686;9.994;2023-04-15T05:33:31;35.40;;;20.00;;
4377;SDS011;2203;53.686;9.994;2023-04-15T05:35:56;38.60;;;20.53;;
4377;SDS011;2203;53.686;9.994;2023-04-15T05:38:22;32.33;;;18.40;;
4377;SDS011;2203;53.686;9.994;2023-04-15T05:40:47;31.80;;;19.43;;
4377;SDS011;2203;53.686;9.994;2023-04-15T05:43:12;33.37;;;18.80;;
4377;SDS011;2203;53.686;9.994;2023-04-15T05:45:38;42.37;;;23.23;;
4377;SDS011;2203;53.686;9.994;2023-04-15T05:48:03;44.70;;;20.67;;
4377;SDS011;2203;53.686;9.994;2023-04-15T05:50:29;37.33;;;20.50;;
4377;SDS011;2203;53.686;9.994;2023-04-15T05:52:54;42.40;;;20.30;;
4377;SDS011;2203;53.686;9.994;2023-04-15T05:55:20;35.67;;;18.60;;
4377;SDS011;2203;53.686;9.994;2023-04-15T05:57:46;35.10;;;19.50;;
4377;SDS011;2203;53.686;9.994;2023-04-15T06:00:11;36.37;;;20.87;;
4377;SDS011;2203;53.686;9.994;2023-04-15T06:02:37;43.03;;;20.30;;
4377;SDS011;2203;53.686;9.994;2023-04-15T06:05:03;38.50;;;20.70;;
4377;SDS011;2203;53.686;9.994;2023-04-15T06:07:33;38.00;;;21.37;;
4377;SDS011;2203;53.686;9.994;2023-04-15T06:10:00;42.53;;;23.00;;
4377;SDS011;2203;53.686;9.994;2023-04-15T06:12:25;44.37;;;21.90;;
4377;SDS011;2203;53.686;9.994;2023-04-15T06:14:50;41.97;;;23.20;;
4377;SDS011;2203;53.686;9.994;2023-04-15T06:17:16;45.77;;;23.43;;
4377;SDS011;2203;53.686;9.994;2023-04-15T06:19:42;50.17;;;23.73;;
4377;SDS011;2203;53.686;9.994;2023-04-15T06:22:08;50.90;;;24.97;;
4377;SDS011;2203;53.686;9.994;2023-04-15T06:24:33;46.70;;;23.67;;
4377;SDS011;2203;53.686;9.994;2023-04-15T06:27:01;47.93;;;24.77;;
4377;SDS011;2203;53.686;9.994;2023-04-15T06:29:26;51.90;;;27.20;;
4377;SDS011;2203;53.686;9.994;2023-04-15T06:31:51;49.07;;;27.27;;
4377;SDS011;2203;53.686;9.994;2023-04-15T06:34:17;46.60;;;24.80;;
4377;SDS011;2203;53.686;9.994;2023-04-15T06:36:42;48.07;;;25.37;;
4377;SDS011;2203;53.686;9.994;2023-04-15T06:39:08;48.23;;;26.90;;
4377;SDS011;2203;53.686;9.994;2023-04-15T06:41:33;47.10;;;25.10;;
4377;SDS011;2203;53.686;9.994;2023-04-15T06:43:59;54.10;;;27.10;;
4377;SDS011;2203;53.686;9.994;2023-04-15T06:46:24;48.20;;;24.87;;
4377;SDS011;2203;53.686;9.994;2023-04-15T06:48:50;53.53;;;28.30;;
4377;SDS011;2203;53.686;9.994;2023-04-15T06:51:16;56.83;;;27.50;;
4377;SDS011;2203;53.686;9.994;2023-04-15T06:53:41;50.87;;;26.47;;
4377;SDS011;2203;53.686;9.994;2023-04-15T06:56:08;51.00;;;27.03;;
4377;SDS011;2203;53.686;9.994;2023-04-15T06:58:50;56.20;;;28.13;;
4377;SDS011;2203;53.686;9.994;2023-04-15T07:01:30;56.90;;;29.07;;
4377;SDS011;2203;53.686;9.994;2023-04-15T07:03:56;59.37;;;30.87;;
4377;SDS011;2203;53.686;9.994;2023-04-15T07:06:21;48.43;;;25.30;;
4377;SDS011;2203;53.686;9.994;2023-04-15T07:08:47;53.03;;;27.60;;
4377;SDS011;2203;53.686;9.994;2023-04-15T07:11:12;50.63;;;26.47;;
4377;SDS011;2203;53.686;9.994;2023-04-15T07:13:38;57.93;;;29.53;;
4377;SDS011;2203;53.686;9.994;2023-04-15T07:16:03;52.70;;;28.40;;
4377;SDS011;2203;53.686;9.994;2023-04-15T07:18:29;57.67;;;27.83;;
4377;SDS011;2203;53.686;9.994;2023-04-15T07:20:54;66.07;;;31.27;;
4377;SDS011;2203;53.686;9.994;2023-04-15T07:23:20;65.33;;;32.00;;
4377;SDS011;2203;53.686;9.994;2023-04-15T07:25:46;59.10;;;29.87;;
4377;SDS011;2203;53.686;9.994;2023-04-15T07:28:12;69.80;;;32.20;;
4377;SDS011;2203;53.686;9.994;2023-04-15T07:30:37;63.27;;;30.93;;
4377;SDS011;2203;53.686;9.994;2023-04-15T07:33:03;71.60;;;33.40;;
4377;SDS011;2203;53.686;9.994;2023-04-15T07:35:29;65.90;;;32.60;;
4377;SDS011;2203;53.686;9.994;2023-04-15T07:37:55;65.50;;;33.20;;
4377;SDS011;2203;53.686;9.994;2023-04-15T07:40:20;67.27;;;30.60;;
4377;SDS011;2203;53.686;9.994;2023-04-15T07:42:46;70.70;;;31.93;;
4377;SDS011;2203;53.686;9.994;2023-04-15T07:45:13;68.23;;;32.77;;
4377;SDS011;2203;53.686;9.994;2023-04-15T07:47:39;68.47;;;31.63;;
4377;SDS011;2203;53.686;9.994;2023-04-15T07:50:05;63.40;;;31.63;;
4377;SDS011;2203;53.686;9.994;2023-04-15T07:52:31;59.47;;;31.83;;
4377;SDS011;2203;53.686;9.994;2023-04-15T07:55:03;70.37;;;31.13;;
4377;SDS011;2203;53.686;9.994;2023-04-15T07:57:30;59.83;;;31.23;;
4377;SDS011;2203;53.686;9.994;2023-04-15T07:59:55;65.57;;;30.43;;
4377;SDS011;2203;53.686;9.994;2023-04-15T08:02:20;65.20;;;32.60;;
4377;SDS011;2203;53.686;9.994;2023-04-15T08:04:46;59.23;;;30.47;;
4377;SDS011;2203;53.686;9.994;2023-04-15T08:07:11;61.37;;;31.07;;
4377;SDS011;2203;53.686;9.994;2023-04-15T08:09:37;69.77;;;31.37;;
4377;SDS011;2203;53.686;9.994;2023-04-15T08:12:02;69.37;;;33.80;;
4377;SDS011;2203;53.686;9.994;2023-04-15T08:14:28;68.00;;;35.40;;
4377;SDS011;2203;53.686;9.994;2023-04-15T08:16:53;81.53;;;34.67;;
4377;SDS011;2203;53.686;9.994;2023-04-15T08:19:19;67.73;;;34.43;;
4377;SDS011;2203;53.686;9.994;2023-04-15T08:21:48;68.57;;;34.17;;
4377;SDS011;2203;53.686;9.994;2023-04-15T08:24:13;65.93;;;32.30;;
4377;SDS011;2203;53.686;9.994;2023-04-15T08:26:39;65.00;;;32.60;;
4377;SDS011;2203;53.686;9.994;2023-04-15T08:29:04;67.70;;;31.90;;
4377;SDS011;2203;53.686;9.994;2023-04-15T08:31:30;68.80;;;32.07;;
4377;SDS011;2203;53.686;9.994;2023-04-15T08:33:56;57.67;;;32.60;;
4377;SDS011;2203;53.686;9.994;2023-04-15T08:36:21;63.73;;;32.53;;
4377;SDS011;2203;53.686;9.994;2023-04-15T08:38:47;55.03;;;29.90;;
4377;SDS011;2203;53.686;9.994;2023-04-15T08:41:22;61.37;;;31.53;;
4377;SDS011;2203;53.686;9.994;2023-04-15T08:44:08;63.00;;;32.77;;
4377;SDS011;2203;53.686;9.994;2023-04-15T08:46:34;66.90;;;33.23;;
4377;SDS011;2203;53.686;9.994;2023-04-15T08:49:02;64.40;;;33.40;;
4377;SDS011;2203;53.686;9.994;2023-04-15T08:51:29;67.43;;;33.00;;
4377;SDS011;2203;53.686;9.994;2023-04-15T08:53:54;67.27;;;34.07;;
4377;SDS011;2203;53.686;9.994;2023-04-15T08:56:22;69.57;;;32.97;;
4377;SDS011;2203;53.686;9.994;2023-04-15T08:58:49;69.40;;;33.63;;
4377;SDS011;2203;53.686;9.994;2023-04-15T09:01:15;74.07;;;35.40;;
4377;SDS011;2203;53.686;9.994;2023-04-15T09:03:41;73.60;;;33.00;;
4377;SDS011;2203;53.686;9.994;2023-04-15T09:06:07;62.23;;;32.67;;
4377;SDS011;2203;53.686;9.994;2023-04-15T09:08:32;79.07;;;35.70;;
4377;SDS011;2203;53.686;9.994;2023-04-15T09:11:03;75.60;;;35.03;;
4377;SDS011;2203;53.686;9.994;2023-04-15T09:13:29;78.30;;;35.37;;
4377;SDS011;2203;53.686;9.994;2023-04-15T09:15:55;66.90;;;33.80;;
4377;SDS011;2203;53.686;9.994;2023-04-15T09:18:26;68.77;;;33.43;;
4377;SDS011;2203;53.686;9.994;2023-04-15T09:20:55;66.03;;;31.97;;
4377;SDS011;2203;53.686;9.994;2023-04-15T09:23:21;73.33;;;34.90;;
4377;SDS011;2203;53.686;9.994;2023-04-15T09:25:46;68.73;;;34.23;;
4377;SDS011;2203;53.686;9.994;2023-04-15T09:28:13;78.20;;;35.50;;
4377;SDS011;2203;53.686;9.994;2023-04-15T09:30:38;64.43;;;31.17;;
4377;SDS011;2203;53.686;9.994;2023-04-15T09:33:10;67.93;;;31.67;;
4377;SDS011;2203;53.686;9.994;2023-04-15T09:35:38;62.27;;;32.50;;
4377;SDS011;2203;53.686;9.994;2023-04-15T09:38:08;64.23;;;31.83;;
4377;SDS011;2203;53.686;9.994;2023-04-15T09:40:37;64.53;;;30.53;;
4377;SDS011;2203;53.686;9.994;2023-04-15T09:43:04;62.63;;;31.70;;
4377;SDS011;2203;53.686;9.994;2023-04-15T09:45:30;75.07;;;30.27;;
4377;SDS011;2203;53.686;9.994;2023-04-15T09:47:57;73.00;;;30.17;;
4377;SDS011;2203;53.686;9.994;2023-04-15T09:50:23;60.03;;;29.90;;
4377;SDS011;2203;53.686;9.994;2023-04-15T09:52:51;57.60;;;29.47;;
4377;SDS011;2203;53.686;9.994;2023-04-15T09:55:17;57.90;;;29.37;;
4377;SDS011;2203;53.686;9.994;2023-04-15T09:57:42;60.40;;;30.50;;
4377;SDS011;2203;53.686;9.994;2023-04-15T10:00:11;57.63;;;29.60;;
4377;SDS011;2203;53.686;9.994;2023-04-15T10:02:38;61.23;;;28.00;;
4377;SDS011;2203;53.686;9.994;2023-04-15T10:05:04;52.70;;;27.23;;
4377;SDS011;2203;53.686;9.994;2023-04-15T10:07:31;67.40;;;28.30;;
4377;SDS011;2203;53.686;9.994;2023-04-15T10:09:56;59.23;;;30.47;;
4377;SDS011;2203;53.686;9.994;2023-04-15T10:12:23;56.80;;;29.30;;
4377;SDS011;2203;53.686;9.994;2023-04-15T10:15:00;56.57;;;28.47;;
4377;SDS011;2203;53.686;9.994;2023-04-15T10:17:29;49.60;;;28.07;;
4377;SDS011;2203;53.686;9.994;2023-04-15T10:19:57;49.50;;;26.83;;
4377;SDS011;2203;53.686;9.994;2023-04-15T10:22:25;55.03;;;25.90;;
4377;SDS011;2203;53.686;9.994;2023-04-15T10:24:52;52.10;;;25.93;;
4377;SDS011;2203;53.686;9.994;2023-04-15T10:27:17;42.83;;;25.30;;
4377;SDS011;2203;53.686;9.994;2023-04-15T10:29:43;54.83;;;26.47;;
4377;SDS011;2203;53.686;9.994;2023-04-15T10:32:08;46.47;;;25.00;;
4377;SDS011;2203;53.686;9.994;2023-04-15T10:34:40;51.20;;;24.63;;
4377;SDS011;2203;53.686;9.994;2023-04-15T10:37:08;52.80;;;23.57;;
4377;SDS011;2203;53.686;9.994;2023-04-15T10:44:31;46.10;;;20.50;;
4377;SDS011;2203;53.686;9.994;2023-04-15T10:46:56;39.87;;;21.07;;
4377;SDS011;2203;53.686;9.994;2023-04-15T10:49:25;34.60;;;20.20;;
4377;SDS011;2203;53.686;9.994;2023-04-15T10:51:52;34.80;;;20.30;;
4377;SDS011;2203;53.686;9.994;2023-04-15T10:56:50;27.70;;;18.10;;
4377;SDS011;2203;53.686;9.994;2023-04-15T10:59:35;45.07;;;16.03;;
4377;SDS011;2203;53.686;9.994;2023-04-15T11:02:03;20.50;;;13.30;;
4377;SDS011;2203;53.686;9.994;2023-04-15T11:07:37;23.33;;;14.03;;
4377;SDS011;2203;53.686;9.994;2023-04-15T11:12:44;25.17;;;13.63;;
4377;SDS011;2203;53.686;9.994;2023-04-15T11:17:58;21.03;;;12.20;;
4377;SDS011;2203;53.686;9.994;2023-04-15T11:20:24;26.80;;;13.20;;
4377;SDS011;2203;53.686;9.994;2023-04-15T11:22:50;17.60;;;11.53;;
4377;SDS011;2203;53.686;9.994;2023-04-15T11:25:26;19.00;;;11.80;;
4377;SDS011;2203;53.686;9.994;2023-04-15T11:27:52;23.57;;;14.33;;
4377;SDS011;2203;53.686;9.994;2023-04-15T11:30:22;22.17;;;12.63;;
4377;SDS011;2203;53.686;9.994;2023-04-15T11:32:50;16.40;;;10.43;;
4377;SDS011;2203;53.686;9.994;2023-04-15T11:35:17;30.83;;;12.53;;
4377;SDS011;2203;53.686;9.994;2023-04-15T11:37:46;14.93;;;10.40;;
4377;SDS011;2203;53.686;9.994;2023-04-15T11:40:13;19.63;;;9.63;;
4377;SDS011;2203;53.686;9.994;2023-04-15T11:42:41;14.67;;;9.63;;
4377;SDS011;2203;53.686;9.994;2023-04-15T11:47:36;17.13;;;10.90;;
4377;SDS011;2203;53.686;9.994;2023-04-15T11:52:54;20.17;;;9.73;;
4377;SDS011;2203;53.686;9.994;2023-04-15T11:55:23;16.33;;;10.40;;
4377;SDS011;2203;53.686;9.994;2023-04-15T11:57:49;20.23;;;9.77;;
4377;SDS011;2203;53.686;9.994;2023-04-15T12:00:15;14.73;;;9.63;;
4377;SDS011;2203;53.686;9.994;2023-04-15T12:02:42;20.70;;;9.60;;
4377;SDS011;2203;53.686;9.994;2023-04-15T12:05:08;19.47;;;10.80;;
4377;SDS011;2203;53.686;9.994;2023-04-15T12:07:56;16.40;;;11.33;;
4377;SDS011;2203;53.686;9.994;2023-04-15T12:10:25;17.03;;;9.90;;
4377;SDS011;2203;53.686;9.994;2023-04-15T12:12:53;18.60;;;9.83;;
4377;SDS011;2203;53.686;9.994;2023-04-15T12:15:22;17.63;;;10.23;;
4377;SDS011;2203;53.686;9.994;2023-04-15T12:17:48;22.43;;;11.57;;
4377;SDS011;2203;53.686;9.994;2023-04-15T12:20:19;17.53;;;11.33;;
4377;SDS011;2203;53.686;9.994;2023-04-15T12:22:46;11.90;;;7.10;;
4377;SDS011;2203;53.686;9.994;2023-04-15T12:25:11;20.07;;;11.80;;
4377;SDS011;2203;53.686;9.994;2023-04-15T12:27:37;17.00;;;11.53;;
4377;SDS011;2203;53.686;9.994;2023-04-15T12:30:03;15.80;;;9.93;;
4377;SDS011;2203;53.686;9.994;2023-04-15T12:32:29;18.80;;;11.50;;
4377;SDS011;2203;53.686;9.994;2023-04-15T12:34:54;17.20;;;9.77;;
4377;SDS011;2203;53.686;9.994;2023-04-15T12:37:20;16.87;;;11.47;;
4377;SDS011;2203;53.686;9.994;2023-04-15T12:39:46;19.00;;;11.00;;
4377;SDS011;2203;53.686;9.994;2023-04-15T12:42:15;21.40;;;11.70;;
4377;SDS011;2203;53.686;9.994;2023-04-15T12:44:41;18.63;;;10.93;;
4377;SDS011;2203;53.686;9.994;2023-04-15T12:47:07;21.23;;;11.00;;
4377;SDS011;2203;53.686;9.994;2023-04-15T12:49:33;20.53;;;11.77;;
4377;SDS011;2203;53.686;9.994;2023-04-15T12:51:59;17.57;;;11.40;;
4377;SDS011;2203;53.686;9.994;2023-04-15T12:54:25;15.60;;;11.30;;
4377;SDS011;2203;53.686;9.994;2023-04-15T12:56:51;17.87;;;11.60;;
4377;SDS011;2203;53.686;9.994;2023-04-15T12:59:18;20.07;;;13.13;;
4377;SDS011;2203;53.686;9.994;2023-04-15T13:01:43;17.37;;;11.80;;
4377;SDS011;2203;53.686;9.994;2023-04-15T13:04:09;18.20;;;11.70;;
4377;SDS011;2203;53.686;9.994;2023-04-15T13:06:35;18.50;;;12.03;;
4377;SDS011;2203;53.686;9.994;2023-04-15T13:09:01;21.57;;;13.40;;
4377;SDS011;2203;53.686;9.994;2023-04-15T13:11:27;18.83;;;10.90;;
4377;SDS011;2203;53.686;9.994;2023-04-15T13:13:55;17.97;;;11.20;;
4377;SDS011;2203;53.686;9.994;2023-04-15T13:16:21;17.07;;;12.07;;
4377;SDS011;2203;53.686;9.994;2023-04-15T13:18:47;12.20;;;7.90;;
4377;SDS011;2203;53.686;9.994;2023-04-15T13:21:13;15.40;;;9.57;;
4377;SDS011;2203;53.686;9.994;2023-04-15T13:23:39;15.63;;;8.00;;
4377;SDS011;2203;53.686;9.994;2023-04-15T13:26:05;16.23;;;10.57;;
4377;SDS011;2203;53.686;9.994;2023-04-15T13:28:31;13.00;;;8.83;;
4377;SDS011;2203;53.686;9.994;2023-04-15T13:30:56;15.90;;;9.20;;
4377;SDS011;2203;53.686;9.994;2023-04-15T13:33:21;13.40;;;9.40;;
4377;SDS011;2203;53.686;9.994;2023-04-15T13:35:47;12.53;;;8.80;;
4377;SDS011;2203;53.686;9.994;2023-04-15T13:38:12;12.00;;;8.13;;
4377;SDS011;2203;53.686;9.994;2023-04-15T13:40:38;12.33;;;8.60;;
4377;SDS011;2203;53.686;9.994;2023-04-15T13:43:03;13.33;;;9.10;;
4377;SDS011;2203;53.686;9.994;2023-04-15T13:45:29;11.93;;;9.50;;
4377;SDS011;2203;53.686;9.994;2023-04-15T13:47:55;14.77;;;9.53;;
4377;SDS011;2203;53.686;9.994;2023-04-15T13:50:21;16.33;;;9.30;;
4377;SDS011;2203;53.686;9.994;2023-04-15T13:52:47;17.60;;;10.53;;
4377;SDS011;2203;53.686;9.994;2023-04-15T13:55:12;23.10;;;10.90;;
4377;SDS011;2203;53.686;9.994;2023-04-15T13:57:39;14.03;;;9.70;;
4377;SDS011;2203;53.686;9.994;2023-04-15T14:00:05;17.03;;;9.20;;
4377;SDS011;2203;53.686;9.994;2023-04-15T14:02:31;14.53;;;9.23;;
4377;SDS011;2203;53.686;9.994;2023-04-15T14:04:57;13.70;;;10.03;;
4377;SDS011;2203;53.686;9.994;2023-04-15T14:07:25;14.97;;;9.93;;
4377;SDS011;2203;53.686;9.994;2023-04-15T14:09:50;27.30;;;13.60;;
4377;SDS011;2203;53.686;9.994;2023-04-15T14:12:16;17.87;;;10.47;;
4377;SDS011;2203;53.686;9.994;2023-04-15T14:14:41;12.73;;;8.70;;
4377;SDS011;2203;53.686;9.994;2023-04-15T14:17:06;15.43;;;10.90;;
4377;SDS011;2203;53.686;9.994;2023-04-15T14:19:32;17.60;;;10.33;;
4377;SDS011;2203;53.686;9.994;2023-04-15T14:21:59;17.20;;;10.67;;
4377;SDS011;2203;53.686;9.994;2023-04-15T14:24:24;15.70;;;10.07;;
4377;SDS011;2203;53.686;9.994;2023-04-15T14:26:50;14.30;;;10.43;;
4377;SDS011;2203;53.686;9.994;2023-04-15T14:29:15;18.03;;;10.93;;
4377;SDS011;2203;53.686;9.994;2023-04-15T14:31:41;18.93;;;11.20;;
4377;SDS011;2203;53.686;9.994;2023-04-15T14:34:08;17.07;;;11.63;;
4377;SDS011;2203;53.686;9.994;2023-04-15T14:36:34;15.70;;;10.23;;
4377;SDS011;2203;53.686;9.994;2023-04-15T14:39:00;22.10;;;14.07;;
4377;SDS011;2203;53.686;9.994;2023-04-15T14:41:28;16.50;;;10.30;;
4377;SDS011;2203;53.686;9.994;2023-04-15T14:43:54;17.57;;;11.83;;
4377;SDS011;2203;53.686;9.994;2023-04-15T14:46:20;18.30;;;11.17;;
4377;SDS011;2203;53.686;9.994;2023-04-15T14:48:46;17.50;;;10.30;;
4377;SDS011;2203;53.686;9.994;2023-04-15T14:51:11;17.67;;;11.43;;
4377;SDS011;2203;53.686;9.994;2023-04-15T14:53:37;15.17;;;10.70;;
4377;SDS011;2203;53.686;9.994;2023-04-15T14:56:02;16.13;;;10.50;;
4377;SDS011;2203;53.686;9.994;2023-04-15T14:58:28;13.47;;;10.17;;
4377;SDS011;2203;53.686;9.994;2023-04-15T15:00:53;14.30;;;10.00;;
4377;SDS011;2203;53.686;9.994;2023-04-15T15:03:19;15.13;;;10.00;;
4377;SDS011;2203;53.686;9.994;2023-04-15T15:05:45;18.80;;;10.70;;
4377;SDS011;2203;53.686;9.994;2023-04-15T15:08:11;18.00;;;9.83;;
4377;SDS011;2203;53.686;9.994;2023-04-15T15:10:37;16.30;;;9.90;;